Time;durP1;ratioP1;P1;durP2;ratioP2;P2;SDS_P1;SDS_P2;PMS_P1;PMS_P2;Temp;Humidity;BMP_temperature;BMP_pressure;BME280_temperature;BME280_humidity;BME280_pressure;Samples;Min_cycle;Max_cycle;Signal;HPM_P1;HPM_P2
2022/05/09 00:00:13;;;;;;;7.97;4.80;;;;;;;9.07;97.54;101831.97;698407;28;1090;-44
2022/05/09 00:00:34;;;;;;;7.38;4.88;;;;;;;9.08;98.83;101833.72;700496;28;1200;-45
2022/05/09 00:00:54;;;;;;;6.82;4.93;;;;;;;9.09;98.70;101832.88;696543;28;1006;-43
2022/05/09 00:01:15;;;;;;;7.70;4.97;;;;;;;9.09;97.53;101835.50;696607;28;4372;-43
2022/05/09 00:01:36;;;;;;;8.03;5.10;;;;;;;9.13;97.67;101834.69;701583;28;1223;-45
2022/05/09 00:01:58;;;;;;;8.38;5.43;;;;;;;9.13;97.18;101837.31;700596;28;1354;-43
2022/05/09 00:02:18;;;;;;;7.43;5.03;;;;;;;9.14;97.17;101839.06;700242;28;1125;-43
2022/05/09 00:02:39;;;;;;;7.30;5.00;;;;;;;9.15;96.51;101829.50;695608;28;1071;-45
2022/05/09 00:02:59;;;;;;;7.68;4.88;;;;;;;9.13;95.88;101834.69;695155;28;1081;-43
2022/05/09 00:03:19;;;;;;;8.87;4.97;;;;;;;9.14;96.87;101843.44;695218;28;1193;-44
2022/05/09 00:03:42;;;;;;;7.28;4.60;;;;;;;9.10;98.25;101839.88;694493;28;972;-44
2022/05/09 00:04:03;;;;;;;8.88;5.00;;;;;;;9.08;98.12;101840.69;693900;28;1254;-44
2022/05/09 00:04:23;;;;;;;8.60;5.10;;;;;;;9.06;97.91;101834.56;696477;28;4361;-44
2022/05/09 00:04:44;;;;;;;7.90;4.88;;;;;;;9.05;98.36;101840.63;699636;27;1086;-44
2022/05/09 00:05:06;;;;;;;7.33;4.93;;;;;;;9.01;98.77;101835.34;700944;28;1502;-44
2022/05/09 00:05:28;;;;;;;8.20;4.85;;;;;;;9.02;97.37;101836.22;701185;28;1579;-43
2022/05/09 00:05:48;;;;;;;8.52;4.60;;;;;;;9.03;97.52;101838.84;697156;28;954;-43
2022/05/09 00:06:08;;;;;;;7.70;4.60;;;;;;;9.04;97.82;101834.50;698559;28;1134;-44
2022/05/09 00:06:32;;;;;;;7.72;4.45;;;;;;;9.04;97.95;101834.50;695636;28;1151;-44
2022/05/09 00:06:53;;;;;;;8.13;4.80;;;;;;;8.97;98.29;101832.63;695705;28;1084;-43
2022/05/09 00:07:13;;;;;;;7.77;4.90;;;;;;;8.93;98.43;101836.03;697711;28;4610;-44
2022/05/09 00:07:34;;;;;;;7.30;4.97;;;;;;;8.94;98.86;101833.44;699472;28;1169;-44
2022/05/09 00:07:55;;;;;;;7.93;4.80;;;;;;;8.93;98.52;101836.91;699911;28;1007;-43
2022/05/09 00:08:15;;;;;;;6.88;4.75;;;;;;;8.92;98.46;101829.06;700294;28;975;-43
2022/05/09 00:08:36;;;;;;;6.93;4.70;;;;;;;8.93;98.38;101834.31;697579;28;1062;-43
2022/05/09 00:08:57;;;;;;;7.43;4.88;;;;;;;8.97;97.49;101830.03;697014;28;1987;-44
2022/05/09 00:09:17;;;;;;;6.63;4.75;;;;;;;8.98;97.35;101831.78;700008;28;1105;-43
2022/05/09 00:09:38;;;;;;;7.33;4.80;;;;;;;9.00;96.58;101838.81;700827;28;1058;-45
2022/05/09 00:09:58;;;;;;;8.33;4.97;;;;;;;8.98;97.44;101827.44;697663;28;1206;-44
2022/05/09 00:10:21;;;;;;;8.33;4.90;;;;;;;8.95;98.37;101830.00;698184;28;4323;-45
2022/05/09 00:10:42;;;;;;;9.35;5.20;;;;;;;8.92;98.63;101834.28;698204;28;1170;-45
2022/05/09 00:11:02;;;;;;;8.77;4.90;;;;;;;8.90;98.87;101836.84;698658;28;1090;-44
2022/05/09 00:11:22;;;;;;;8.15;5.03;;;;;;;8.89;98.40;101835.09;698046;28;1163;-42
2022/05/09 00:11:43;;;;;;;7.47;4.80;;;;;;;8.85;98.67;101828.91;699016;28;1300;-44
2022/05/09 00:12:04;;;;;;;8.85;5.07;;;;;;;8.80;98.22;101840.09;700513;28;1074;-44
2022/05/09 00:12:25;;;;;;;9.00;5.10;;;;;;;8.77;97.97;101835.69;699986;28;1186;-43
2022/05/09 00:12:46;;;;;;;7.43;4.80;;;;;;;8.75;98.42;101837.41;700415;28;1010;-45
2022/05/09 00:13:06;;;;;;;8.38;5.28;;;;;;;8.71;99.28;101834.69;699536;28;1090;-44
2022/05/09 00:13:26;;;;;;;7.28;4.90;;;;;;;8.65;99.38;101830.22;699825;27;4283;-43
2022/05/09 00:13:47;;;;;;;7.80;4.87;;;;;;;8.61;99.26;101841.41;700746;28;971;-43
2022/05/09 00:14:08;;;;;;;8.40;5.07;;;;;;;8.56;99.62;101830.03;700871;28;927;-44
2022/05/09 00:14:28;;;;;;;7.57;4.90;;;;;;;8.54;100.00;101832.59;701259;28;1027;-45
2022/05/09 00:14:49;;;;;;;7.37;4.63;;;;;;;8.57;98.93;101826.56;700376;28;1412;-43
2022/05/09 00:15:10;;;;;;;7.78;4.97;;;;;;;8.65;98.66;101840.66;700826;28;1030;-44
2022/05/09 00:15:30;;;;;;;6.90;4.95;;;;;;;8.69;98.26;101842.47;700671;28;958;-44
2022/05/09 00:15:51;;;;;;;7.70;4.90;;;;;;;8.74;98.18;101829.56;700631;28;999;-43
2022/05/09 00:16:11;;;;;;;6.50;4.53;;;;;;;8.78;98.91;101836.59;701125;27;4240;-43
2022/05/09 00:16:34;;;;;;;6.72;4.65;;;;;;;8.80;97.50;101835.75;701283;28;1226;-44
2022/05/09 00:16:55;;;;;;;5.82;4.50;;;;;;;8.87;97.66;101834.16;700807;28;934;-44
2022/05/09 00:17:15;;;;;;;6.57;4.67;;;;;;;8.84;97.87;101824.53;701077;28;954;-46
2022/05/09 00:17:36;;;;;;;8.37;4.70;;;;;;;8.80;98.04;101832.28;701673;28;1109;-44
2022/05/09 00:17:56;;;;;;;9.13;4.70;;;;;;;8.76;98.29;101835.66;701474;28;1378;-43
2022/05/09 00:18:19;;;;;;;8.00;4.70;;;;;;;8.73;98.50;101833.00;701173;28;1024;-44
2022/05/09 00:18:40;;;;;;;6.55;4.40;;;;;;;8.67;99.19;101833.75;700281;28;1276;-43
2022/05/09 00:19:05;;;;;;;7.07;4.67;;;;;;;8.68;99.25;101833.78;700554;28;1113;-44
2022/05/09 00:19:25;;;;;;;8.10;4.72;;;;;;;8.69;98.75;101834.66;700420;28;4520;-43
2022/05/09 00:19:45;;;;;;;8.60;4.63;;;;;;;8.68;98.62;101831.19;699985;28;1201;-43
2022/05/09 00:20:07;;;;;;;7.82;4.63;;;;;;;8.73;98.85;101830.41;700145;28;1268;-43
2022/05/09 00:20:28;;;;;;;6.93;4.50;;;;;;;8.75;99.11;101818.25;701569;28;1204;-43
2022/05/09 00:20:48;;;;;;;7.05;4.32;;;;;;;8.76;98.79;101828.72;700834;28;1196;-44
2022/05/09 00:21:08;;;;;;;6.93;4.47;;;;;;;8.74;99.15;101829.56;700288;28;3758;-44
2022/05/09 00:21:35;;;;;;;7.07;4.80;;;;;;;8.71;99.57;101830.38;701087;28;1251;-43
2022/05/09 00:21:56;;;;;;;8.32;4.72;;;;;;;8.72;98.92;101829.50;699804;28;1158;-43
2022/05/09 00:22:16;;;;;;;7.40;4.60;;;;;;;8.79;97.71;101822.69;696781;28;4435;-45
2022/05/09 00:22:44;;;;;;;7.20;4.40;;;;;;;8.82;97.63;101822.75;697156;28;1054;-44
2022/05/09 00:23:04;;;;;;;6.93;4.43;;;;;;;8.80;98.55;101825.31;698281;28;1236;-44
2022/05/09 00:23:25;;;;;;;7.63;4.72;;;;;;;8.79;98.57;101823.59;696915;28;1138;-43
2022/05/09 00:23:45;;;;;;;7.07;4.73;;;;;;;8.79;98.73;101828.81;697628;28;1138;-43
2022/05/09 00:24:08;;;;;;;8.23;4.50;;;;;;;8.76;98.12;101820.91;698911;28;1202;-44
2022/05/09 00:24:29;;;;;;;7.40;4.57;;;;;;;8.75;97.98;101824.38;699404;28;1185;-44
2022/05/09 00:24:49;;;;;;;7.70;4.60;;;;;;;8.76;97.43;101826.09;699964;28;1375;-43
2022/05/09 00:25:10;;;;;;;6.80;4.50;;;;;;;8.77;97.71;101820.06;701252;27;4342;-43
2022/05/09 00:25:31;;;;;;;6.55;4.38;;;;;;;8.73;98.99;101826.06;700920;28;1218;-44
2022/05/09 00:25:51;;;;;;;8.27;4.80;;;;;;;8.71;98.59;101825.16;701261;28;1113;-43
2022/05/09 00:26:11;;;;;;;7.22;4.25;;;;;;;8.69;98.74;101821.63;701322;28;1168;-43
2022/05/09 00:26:32;;;;;;;8.47;4.80;;;;;;;8.67;98.57;101824.19;701621;28;1188;-44
2022/05/09 00:26:52;;;;;;;6.67;4.40;;;;;;;8.69;98.30;101826.84;700580;28;1275;-43
2022/05/09 00:27:13;;;;;;;6.32;4.38;;;;;;;8.71;98.57;101825.16;700481;28;1180;-43
2022/05/09 00:27:33;;;;;;;7.18;4.57;;;;;;;8.71;98.72;101824.25;700539;28;1108;-43
2022/05/09 00:27:54;;;;;;;6.57;4.50;;;;;;;8.66;99.36;101827.63;700811;28;1041;-43
2022/05/09 00:28:15;;;;;;;6.57;4.55;;;;;;;8.66;99.24;101826.78;699673;27;4288;-43
2022/05/09 00:28:35;;;;;;;6.43;4.43;;;;;;;8.67;97.75;101826.81;700548;28;5066;-44
2022/05/09 00:29:00;;;;;;;7.28;4.28;;;;;;;8.71;97.83;101830.38;700985;28;1906;-44
2022/05/09 00:29:21;;;;;;;6.45;4.00;;;;;;;8.73;97.53;101823.44;699772;28;1114;-43
2022/05/09 00:29:41;;;;;;;7.30;4.50;;;;;;;8.75;97.86;101821.78;700205;28;1161;-44
2022/05/09 00:30:01;;;;;;;7.40;4.30;;;;;;;8.73;99.04;101828.66;700480;28;1114;-43
2022/05/09 00:30:22;;;;;;;8.40;4.50;;;;;;;8.70;98.15;101823.38;700253;28;1174;-44
2022/05/09 00:30:42;;;;;;;7.90;4.43;;;;;;;8.65;98.11;101828.50;699675;28;1114;-44
2022/05/09 00:31:04;;;;;;;6.50;4.30;;;;;;;8.65;98.07;101820.69;700121;28;1086;-43
2022/05/09 00:31:25;;;;;;;6.57;4.20;;;;;;;8.66;98.23;101825.03;699549;27;4516;-44
2022/05/09 00:31:48;;;;;;;5.95;4.30;;;;;;;8.68;98.49;101830.28;700324;28;1244;-44
2022/05/09 00:32:08;;;;;;;6.80;4.55;;;;;;;8.68;99.06;101825.06;700939;28;1125;-44
2022/05/09 00:32:29;;;;;;;7.63;4.53;;;;;;;8.68;98.62;101825.97;700290;28;1496;-44
2022/05/09 00:32:50;;;;;;;8.30;4.70;;;;;;;8.68;98.23;101831.19;699688;28;1028;-44
2022/05/09 00:33:10;;;;;;;7.90;4.30;;;;;;;8.67;98.01;101825.94;700537;28;1175;-43
2022/05/09 00:33:31;;;;;;;7.03;4.30;;;;;;;8.69;98.29;101829.44;700410;28;1025;-43
2022/05/09 00:33:51;;;;;;;6.85;4.40;;;;;;;8.69;98.29;101826.84;698704;28;1226;-43
2022/05/09 00:34:17;;;;;;;6.97;4.80;;;;;;;8.72;96.83;101828.63;700229;27;4346;-44
2022/05/09 00:34:37;;;;;;;7.95;4.60;;;;;;;8.70;97.87;101823.38;701029;28;1217;-43
2022/05/09 00:34:58;;;;;;;6.97;4.70;;;;;;;8.65;98.72;101825.00;701415;28;1014;-43
2022/05/09 00:35:18;;;;;;;6.63;4.90;;;;;;;8.64;98.65;101828.44;699871;28;1039;-43
2022/05/09 00:35:40;;;;;;;6.30;4.60;;;;;;;8.61;98.91;101824.06;698687;28;1099;-43
2022/05/09 00:36:00;;;;;;;6.78;4.80;;;;;;;8.63;98.39;101826.72;698217;28;1105;-43
2022/05/09 00:36:21;;;;;;;7.80;4.57;;;;;;;8.65;98.72;101820.69;697993;28;1078;-44
2022/05/09 00:36:42;;;;;;;6.80;4.40;;;;;;;8.67;97.97;101828.53;699498;28;1118;-45
2022/05/09 00:37:03;;;;;;;5.77;4.20;;;;;;;8.66;98.60;101826.78;701240;28;1122;-44
2022/05/09 00:37:23;;;;;;;6.22;4.72;;;;;;;8.60;99.19;101821.41;700802;28;4332;-44
2022/05/09 00:37:43;;;;;;;6.65;4.68;;;;;;;8.62;98.86;101819.72;699613;28;1333;-42
2022/05/09 00:38:04;;;;;;;6.13;4.40;;;;;;;8.67;99.03;101820.72;700220;28;1062;-43
2022/05/09 00:38:26;;;;;;;6.20;4.38;;;;;;;8.75;97.98;101815.66;701323;28;1196;-43
2022/05/09 00:38:47;;;;;;;6.22;4.30;;;;;;;8.77;97.13;101819.19;699342;28;1140;-43
2022/05/09 00:39:07;;;;;;;7.25;4.50;;;;;;;8.75;97.71;101816.56;700811;28;1236;-43
2022/05/09 00:39:28;;;;;;;7.13;4.20;;;;;;;8.76;96.97;101818.28;699822;28;1229;-45
2022/05/09 00:39:50;;;;;;;8.32;4.60;;;;;;;8.74;98.23;101824.34;700189;28;1005;-44
2022/05/09 00:40:14;;;;;;;7.50;4.47;;;;;;;8.67;98.05;101818.97;701046;28;4454;-43
2022/05/09 00:40:34;;;;;;;6.13;4.40;;;;;;;8.70;97.95;101823.38;700342;28;1133;-44
2022/05/09 00:41:34;;;;;;;7.20;4.70;;;;;;;8.63;98.79;101818.91;700835;28;1102;-44
2022/05/09 00:41:54;;;;;;;6.10;4.60;;;;;;;8.56;99.34;101819.63;701214;28;1092;-43
2022/05/09 00:42:15;;;;;;;6.13;4.70;;;;;;;8.55;99.27;101821.31;700701;28;1113;-45
2022/05/09 00:42:37;;;;;;;5.97;4.63;;;;;;;8.54;99.03;101818.69;700733;28;1100;-44
2022/05/09 00:42:57;;;;;;;7.38;4.55;;;;;;;8.55;98.24;101817.84;698840;28;1071;-43
2022/05/09 00:43:35;;;;;;;6.63;4.43;;;;;;;8.60;98.55;101824.00;700054;28;4549;-43
2022/05/09 00:44:01;;;;;;;5.95;4.25;;;;;;;8.65;98.13;101817.19;700940;28;1396;-43
2022/05/09 00:44:27;;;;;;;6.94;4.66;;;;;;;8.61;99.13;101820.56;700632;28;1074;-43
2022/05/09 00:44:47;;;;;;;7.78;4.75;;;;;;;8.58;99.63;101815.28;697335;28;1201;-43
2022/05/09 00:45:09;;;;;;;6.83;4.50;;;;;;;8.56;99.63;101823.09;696396;28;1099;-43
2022/05/09 00:45:29;;;;;;;7.13;4.60;;;;;;;8.56;98.82;101819.63;696894;28;1422;-44
2022/05/09 00:45:49;;;;;;;8.07;4.80;;;;;;;8.57;98.67;101821.34;697422;28;1004;-44
2022/05/09 00:46:10;;;;;;;8.83;4.90;;;;;;;8.60;97.82;101817.09;697226;28;4300;-43
2022/05/09 00:46:31;;;;;;;7.17;4.57;;;;;;;8.65;97.91;101819.78;693780;28;1204;-44
2022/05/09 00:46:53;;;;;;;7.13;4.28;;;;;;;8.68;99.05;101822.47;697523;28;967;-43
2022/05/09 00:47:13;;;;;;;7.43;4.68;;;;;;;8.68;98.59;101820.75;700008;28;1129;-43
2022/05/09 00:47:34;;;;;;;7.40;4.50;;;;;;;8.70;98.73;101818.16;700733;28;1129;-44
2022/05/09 00:47:54;;;;;;;6.50;4.40;;;;;;;8.72;97.81;101818.19;700607;28;1092;-44
2022/05/09 00:48:15;;;;;;;6.97;4.45;;;;;;;8.72;98.47;101820.81;701028;28;1161;-44
2022/05/09 00:48:36;;;;;;;6.37;4.40;;;;;;;8.68;98.24;101822.47;701673;28;1077;-46
2022/05/09 00:49:02;;;;;;;6.60;4.67;;;;;;;8.67;98.87;101818.97;699791;28;1962;-44
2022/05/09 00:49:29;;;;;;;6.55;4.43;;;;;;;8.68;99.26;101819.84;700021;28;4885;-43
2022/05/09 00:49:54;;;;;;;6.75;4.50;;;;;;;8.71;98.63;101816.44;701840;28;1053;-43
2022/05/09 00:50:26;;;;;;;7.03;5.03;;;;;;;8.75;98.67;101826.09;700906;28;1103;-43
2022/05/09 00:50:46;;;;;;;7.07;4.60;;;;;;;8.81;98.29;101818.41;701056;28;1218;-43
2022/05/09 00:51:08;;;;;;;7.43;4.47;;;;;;;8.82;98.85;101815.81;700150;28;1249;-43
2022/05/09 00:51:29;;;;;;;7.88;4.80;;;;;;;8.87;98.75;101815.91;703485;28;1142;-43
2022/05/09 00:52:01;;;;;;;7.88;4.72;;;;;;;8.86;97.89;101812.44;703375;27;1066;-43
2022/05/09 00:52:36;;;;;;;6.43;4.50;;;;;;;8.77;98.54;101816.59;702728;28;4446;-43
2022/05/09 00:53:02;;;;;;;7.53;4.70;;;;;;;8.69;99.39;101816.41;702757;27;1037;-43
2022/05/09 00:53:24;;;;;;;8.48;4.72;;;;;;;8.64;99.19;101824.13;701343;28;1198;-43
2022/05/09 00:53:48;;;;;;;8.00;4.53;;;;;;;8.62;99.31;101815.38;700763;28;1017;-43
2022/05/09 00:54:08;;;;;;;7.82;4.47;;;;;;;8.60;99.64;101822.31;700650;28;1160;-43
2022/05/09 00:54:38;;;;;;;7.25;4.55;;;;;;;8.57;99.92;101821.34;701355;28;1267;-43
2022/05/09 00:55:06;;;;;;;7.13;4.70;;;;;;;8.61;98.97;101820.56;700764;28;915;-45
2022/05/09 00:55:35;;;;;;;6.90;4.57;;;;;;;8.67;97.58;101820.72;700109;28;4306;-43
2022/05/09 00:56:00;;;;;;;6.50;4.43;;;;;;;8.76;97.38;101813.06;700736;28;1080;-43
2022/05/09 00:56:33;;;;;;;7.43;4.30;;;;;;;8.79;96.96;101814.88;699998;28;994;-45
2022/05/09 00:57:00;;;;;;;6.65;4.40;;;;;;;8.83;96.39;101814.09;700383;28;973;-43
2022/05/09 00:57:26;;;;;;;6.60;4.40;;;;;;;8.85;97.16;101815.88;700341;28;1054;-43
2022/05/09 00:57:56;;;;;;;7.05;4.40;;;;;;;8.85;97.17;101813.28;700386;28;1073;-43
2022/05/09 00:58:38;;;;;;;6.18;4.43;;;;;;;8.85;96.79;101809.81;698973;27;4447;-43
2022/05/09 00:59:06;;;;;;;6.40;4.65;;;;;;;8.89;97.40;101808.13;700904;28;1077;-43
2022/05/09 00:59:30;;;;;;;7.70;4.63;;;;;;;8.87;97.22;101818.53;701468;28;1211;-44
2022/05/09 00:59:55;;;;;;;7.03;4.30;;;;;;;8.89;96.82;101808.13;701024;28;951;-44
2022/05/09 01:00:18;;;;;;;7.22;4.68;;;;;;;8.88;97.12;101816.81;700563;28;1153;-43
2022/05/09 01:00:41;;;;;;;6.95;4.40;;;;;;;8.83;98.16;101820.19;699912;28;1050;-43
2022/05/09 01:01:03;;;;;;;7.28;4.57;;;;;;;8.81;98.32;101816.66;700894;28;1066;-44
2022/05/09 01:01:24;;;;;;;7.35;4.63;;;;;;;8.78;99.31;101814.00;700264;28;4351;-44
2022/05/09 01:01:46;;;;;;;7.40;4.50;;;;;;;8.73;98.46;101815.63;697617;28;1071;-43
2022/05/09 01:02:08;;;;;;;6.53;4.88;;;;;;;8.69;98.15;101819.00;698440;28;1086;-43
2022/05/09 01:02:29;;;;;;;6.85;4.65;;;;;;;8.71;97.94;101811.22;693963;28;1447;-43
2022/05/09 01:02:59;;;;;;;7.22;4.60;;;;;;;8.64;98.63;101812.81;695570;28;1405;-43
2022/05/09 01:03:46;;;;;;;7.75;4.60;;;;;;;8.64;98.83;101810.19;696400;28;1122;-43
2022/05/09 01:04:06;;;;;;;7.55;4.90;;;;;;;8.55;99.98;101812.63;689959;28;1254;-43
2022/05/09 01:04:29;;;;;;;7.20;4.63;;;;;;;8.49;100.00;101813.38;691729;28;4471;-44
2022/05/09 01:04:57;;;;;;;7.40;4.68;;;;;;;8.44;99.08;101815.81;689162;28;1783;-42
2022/05/09 01:05:18;;;;;;;6.78;4.60;;;;;;;8.48;99.64;101822.91;699467;28;1376;-45
2022/05/09 01:05:41;;;;;;;6.43;4.53;;;;;;;8.51;98.38;101812.56;697663;28;1083;-43
2022/05/09 01:06:02;;;;;;;6.18;4.40;;;;;;;8.58;98.41;101817.91;697660;28;1102;-43
2022/05/09 01:06:23;;;;;;;6.40;4.40;;;;;;;8.63;98.02;101811.06;697967;28;1150;-44
2022/05/09 01:06:44;;;;;;;7.22;4.47;;;;;;;8.71;97.44;101809.50;697888;28;1256;-43
2022/05/09 01:07:04;;;;;;;7.60;4.57;;;;;;;8.73;97.89;101823.44;695935;28;1273;-44
2022/05/09 01:07:25;;;;;;;7.47;4.60;;;;;;;8.70;98.40;101810.34;695961;28;4319;-43
2022/05/09 01:07:45;;;;;;;7.37;4.70;;;;;;;8.61;98.93;101813.66;697842;28;1403;-43
2022/05/09 01:08:07;;;;;;;6.88;4.93;;;;;;;8.57;99.70;101811.81;698672;28;1078;-44
2022/05/09 01:08:27;;;;;;;7.13;4.83;;;;;;;8.60;98.32;101811.88;697552;28;1226;-43
2022/05/09 01:08:47;;;;;;;7.43;4.60;;;;;;;8.63;98.57;101811.94;698172;28;1913;-42
2022/05/09 01:09:11;;;;;;;7.17;4.60;;;;;;;8.67;98.59;101811.16;700889;28;1063;-44
2022/05/09 01:09:32;;;;;;;7.10;4.55;;;;;;;8.65;97.96;101814.56;701226;28;1209;-43
2022/05/09 01:09:52;;;;;;;6.72;4.47;;;;;;;8.66;98.42;101816.34;701025;28;1053;-43
2022/05/09 01:10:15;;;;;;;6.77;4.60;;;;;;;8.61;99.35;101815.34;701412;27;4279;-43
2022/05/09 01:10:40;;;;;;;7.15;4.75;;;;;;;8.55;98.45;101812.63;699943;28;1134;-43
2022/05/09 01:11:09;;;;;;;6.15;4.38;;;;;;;8.58;98.09;101810.94;700822;28;1109;-43
2022/05/09 01:11:30;;;;;;;7.15;4.07;;;;;;;8.61;96.80;101812.75;696635;28;1070;-44
2022/05/09 01:11:50;;;;;;;6.72;4.13;;;;;;;8.62;97.63;101815.38;698149;28;992;-44
2022/05/09 01:12:13;;;;;;;7.00;4.53;;;;;;;8.60;97.95;101808.38;697556;28;1433;-43
2022/05/09 01:12:36;;;;;;;6.68;4.50;;;;;;;8.58;98.16;101810.09;700050;28;1137;-44
2022/05/09 01:13:00;;;;;;;6.53;4.55;;;;;;;8.60;98.00;101810.97;696896;28;1002;-44
2022/05/09 01:13:24;;;;;;;6.95;4.40;;;;;;;8.62;97.99;101809.31;696662;28;4315;-42
2022/05/09 01:13:48;;;;;;;8.85;4.75;;;;;;;8.62;98.64;101809.31;700165;28;1317;-43
2022/05/09 01:14:22;;;;;;;6.53;4.50;;;;;;;8.52;98.51;101808.22;700286;28;1043;-43
2022/05/09 01:14:43;;;;;;;7.85;4.63;;;;;;;8.51;97.64;101812.56;698419;28;1668;-44
2022/05/09 01:15:10;;;;;;;6.65;4.75;;;;;;;8.55;97.77;101812.63;701292;28;1053;-43
2022/05/09 01:15:31;;;;;;;7.22;4.40;;;;;;;8.55;96.97;101812.63;700208;28;1259;-43
2022/05/09 01:15:54;;;;;;;6.95;4.45;;;;;;;8.52;98.02;101810.84;700359;28;981;-44
2022/05/09 01:16:18;;;;;;;6.85;4.40;;;;;;;8.52;97.76;101811.69;701683;28;4502;-43
2022/05/09 01:16:39;;;;;;;7.68;4.18;;;;;;;8.55;97.25;101810.03;702839;28;1170;-43
2022/05/09 01:17:04;;;;;;;7.47;4.38;;;;;;;8.57;96.61;101810.91;703119;27;1032;-44
2022/05/09 01:17:24;;;;;;;7.30;4.35;;;;;;;8.58;97.92;101813.56;701301;28;927;-44
2022/05/09 01:17:47;;;;;;;6.73;4.30;;;;;;;8.58;97.76;101810.09;701914;27;1392;-45
2022/05/09 01:18:11;;;;;;;8.40;4.22;;;;;;;8.52;98.96;101818.66;700013;28;1150;-44
2022/05/09 01:18:32;;;;;;;8.98;4.63;;;;;;;8.52;98.54;101810.84;701472;28;1179;-44
2022/05/09 01:18:52;;;;;;;8.20;4.70;;;;;;;8.58;97.63;101817.91;700840;28;941;-44
2022/05/09 01:19:27;;;;;;;7.70;4.40;;;;;;;8.57;97.47;101811.81;699040;27;5305;-44
2022/05/09 01:19:48;;;;;;;6.88;4.28;;;;;;;8.59;96.83;101810.13;700280;28;1305;-43
2022/05/09 01:20:10;;;;;;;6.43;4.15;;;;;;;8.63;96.47;101808.47;697669;28;1352;-44
2022/05/09 01:20:31;;;;;;;7.47;4.45;;;;;;;8.57;97.21;101806.59;696903;28;1103;-44
2022/05/09 01:20:51;;;;;;;6.53;4.27;;;;;;;8.54;97.45;101808.25;697955;28;963;-44
2022/05/09 01:21:45;;;;;;;6.07;4.40;;;;;;;8.58;96.87;101813.56;696857;28;1126;-43
2022/05/09 01:22:25;;;;;;;7.00;4.03;;;;;;;8.59;98.53;101804.91;701319;28;1090;-43
2022/05/09 01:22:46;;;;;;;7.53;4.57;;;;;;;8.56;98.31;101806.59;699172;28;4747;-44
2022/05/09 01:23:08;;;;;;;6.70;4.28;;;;;;;8.53;98.20;101804.78;701658;28;1069;-42
2022/05/09 01:23:33;;;;;;;6.60;4.10;;;;;;;8.51;97.48;101807.34;701049;28;1279;-44
2022/05/09 01:23:53;;;;;;;7.95;4.43;;;;;;;8.50;97.98;101807.28;700144;28;1026;-44
2022/05/09 01:24:17;;;;;;;7.03;4.22;;;;;;;8.46;97.75;101811.59;701219;28;1153;-45
2022/05/09 01:24:38;;;;;;;7.60;4.50;;;;;;;8.45;98.20;101804.59;698811;28;1062;-43
2022/05/09 01:25:02;;;;;;;6.63;4.27;;;;;;;8.42;97.87;101807.09;700321;28;974;-43
2022/05/09 01:25:23;;;;;;;6.15;4.05;;;;;;;8.44;98.30;101805.41;700226;28;5516;-44
2022/05/09 01:25:44;;;;;;;7.00;4.20;;;;;;;8.44;98.06;101804.53;700422;28;1291;-44
2022/05/09 01:26:04;;;;;;;8.27;4.20;;;;;;;8.44;98.56;101801.94;701166;28;1116;-44
2022/05/09 01:26:25;;;;;;;7.40;4.03;;;;;;;8.41;97.82;101807.09;701588;28;1121;-44
2022/05/09 01:26:46;;;;;;;7.13;4.20;;;;;;;8.38;98.04;101805.28;699071;28;1081;-43
2022/05/09 01:27:06;;;;;;;6.20;4.00;;;;;;;8.39;97.78;101800.94;697368;28;1233;-43
2022/05/09 01:27:27;;;;;;;7.17;4.20;;;;;;;8.40;98.80;101806.19;698172;28;1331;-44
2022/05/09 01:27:48;;;;;;;7.37;4.20;;;;;;;8.38;98.63;101804.38;698072;28;1283;-45
2022/05/09 01:28:11;;;;;;;7.57;4.28;;;;;;;8.30;98.60;101805.09;697334;28;5123;-44
2022/05/09 01:28:32;;;;;;;6.93;4.25;;;;;;;8.29;99.28;101805.06;697671;28;4874;-43
2022/05/09 01:28:56;;;;;;;6.63;4.10;;;;;;;8.29;98.90;101802.47;698984;28;1986;-43
2022/05/09 01:29:40;;;;;;;8.00;4.30;;;;;;;8.28;99.30;101800.69;699540;28;1918;-43
2022/05/09 01:30:08;;;;;;;6.75;4.45;;;;;;;8.29;98.52;101805.06;690639;28;1239;-42
2022/05/09 01:30:52;;;;;;;7.13;4.30;;;;;;;8.32;97.60;101799.91;701849;28;1398;-43
2022/05/09 01:31:16;;;;;;;6.90;3.92;;;;;;;8.39;97.98;101808.75;698880;28;4322;-43
2022/05/09 01:31:38;;;;;;;6.30;3.90;;;;;;;8.41;97.99;101805.34;699687;28;1133;-43
2022/05/09 01:31:59;;;;;;;5.95;4.00;;;;;;;8.39;97.93;101801.84;698121;28;963;-43
2022/05/09 01:32:27;;;;;;;5.80;4.00;;;;;;;8.37;97.42;101795.69;699011;28;1125;-45
2022/05/09 01:32:47;;;;;;;6.03;4.10;;;;;;;8.39;97.81;101801.84;699759;28;1272;-44
2022/05/09 01:33:14;;;;;;;6.22;4.00;;;;;;;8.43;96.97;101797.56;701259;28;1031;-43
2022/05/09 01:33:40;;;;;;;7.32;4.10;;;;;;;8.42;99.02;101801.00;697149;28;1216;-44
2022/05/09 01:34:01;;;;;;;7.95;4.50;;;;;;;8.38;98.39;101805.28;699169;28;1106;-43
2022/05/09 01:34:21;;;;;;;6.85;4.60;;;;;;;8.35;98.40;101806.09;699601;28;4507;-43
2022/05/09 01:34:46;;;;;;;6.50;4.50;;;;;;;8.38;98.47;101805.28;699680;28;1078;-43
2022/05/09 01:35:22;;;;;;;6.18;4.07;;;;;;;8.34;98.71;101803.44;699650;28;1260;-43
2022/05/09 01:35:51;;;;;;;5.80;4.13;;;;;;;8.31;98.73;101808.59;699849;28;1070;-44
2022/05/09 01:36:15;;;;;;;6.05;4.30;;;;;;;8.31;97.89;101804.25;699799;28;1081;-43
2022/05/09 01:36:37;;;;;;;6.10;3.85;;;;;;;8.27;98.22;101802.44;701294;28;1045;-43
2022/05/09 01:37:04;;;;;;;6.70;3.85;;;;;;;8.28;97.53;101798.09;701441;28;976;-43
2022/05/09 01:37:24;;;;;;;6.20;3.90;;;;;;;8.26;97.66;101798.06;701441;27;4246;-43
2022/05/09 01:37:52;;;;;;;6.35;4.20;;;;;;;8.24;97.51;101802.38;700318;28;1153;-43
2022/05/09 01:38:19;;;;;;;7.15;4.40;;;;;;;8.25;97.34;101806.72;699346;28;1129;-44
2022/05/09 01:38:54;;;;;;;7.18;4.20;;;;;;;8.28;97.87;101800.69;701078;28;1114;-45
2022/05/09 01:39:15;;;;;;;6.53;4.30;;;;;;;8.25;97.43;101801.53;698866;28;1138;-43
2022/05/09 01:39:36;;;;;;;6.80;4.10;;;;;;;8.24;97.08;101809.28;700030;28;1209;-43
2022/05/09 01:39:56;;;;;;;8.65;4.18;;;;;;;8.22;97.64;101805.78;697480;28;1314;-44
2022/05/09 01:40:17;;;;;;;7.20;4.20;;;;;;;8.22;96.73;101809.25;697171;28;5648;-44
2022/05/09 01:40:37;;;;;;;6.43;4.10;;;;;;;8.30;97.04;101804.22;698640;28;1286;-45
2022/05/09 01:40:58;;;;;;;6.23;4.00;;;;;;;8.35;96.87;101807.81;700896;28;1138;-45
2022/05/09 01:41:18;;;;;;;5.95;3.83;;;;;;;8.39;97.82;101807.06;700469;28;1099;-43
2022/05/09 01:41:44;;;;;;;7.13;3.80;;;;;;;8.34;97.94;101801.72;701580;28;1071;-45
2022/05/09 01:42:09;;;;;;;6.30;3.78;;;;;;;8.39;97.13;101806.16;700572;28;1243;-43
2022/05/09 01:42:30;;;;;;;7.78;4.25;;;;;;;8.37;97.58;101808.72;700560;28;1168;-44
2022/05/09 01:42:50;;;;;;;7.43;4.30;;;;;;;8.39;97.35;101804.44;700256;28;1228;-43
2022/05/09 01:43:12;;;;;;;5.57;3.72;;;;;;;8.40;97.54;101803.56;700450;28;4302;-44
2022/05/09 01:43:41;;;;;;;5.60;4.10;;;;;;;8.41;96.16;101802.72;698084;28;1106;-44
2022/05/09 01:44:02;;;;;;;6.47;3.97;;;;;;;8.39;96.16;101804.44;698875;28;1360;-43
2022/05/09 01:44:23;;;;;;;7.70;4.15;;;;;;;8.39;96.50;101804.44;699449;28;1111;-44
2022/05/09 01:44:43;;;;;;;6.45;4.10;;;;;;;8.36;96.58;101806.97;699471;28;1110;-44
2022/05/09 01:45:06;;;;;;;7.60;4.30;;;;;;;8.29;96.88;101807.66;702333;28;1085;-44
2022/05/09 01:45:26;;;;;;;7.78;4.25;;;;;;;8.30;95.83;101802.50;701689;28;1204;-43
2022/05/09 01:45:47;;;;;;;6.80;4.10;;;;;;;8.31;96.45;101806.00;701506;28;1291;-43
2022/05/09 01:46:13;;;;;;;6.68;3.85;;;;;;;8.38;95.38;101801.78;700338;27;4511;-43
2022/05/09 01:46:35;;;;;;;7.25;4.03;;;;;;;8.32;97.12;101800.81;700765;28;1069;-42
2022/05/09 01:49:35;;;;;;;7.72;4.10;;;;;;;8.03;98.77;101807.97;700961;27;4867;-44
2022/05/09 01:49:55;;;;;;;6.68;4.00;;;;;;;8.06;98.11;101808.03;702266;27;989;-43
2022/05/09 01:50:15;;;;;;;6.40;4.00;;;;;;;8.02;99.04;101806.19;703590;27;1089;-43
2022/05/09 01:50:36;;;;;;;6.13;3.90;;;;;;;7.97;99.68;101802.59;701808;28;1094;-43
2022/05/09 01:50:56;;;;;;;6.70;4.03;;;;;;;7.95;98.65;101801.69;700724;28;935;-43
2022/05/09 01:51:17;;;;;;;8.23;4.17;;;;;;;7.99;98.48;101811.31;701259;28;1154;-43
2022/05/09 01:51:40;;;;;;;7.25;3.90;;;;;;;8.00;98.41;101803.56;701079;28;1103;-43
2022/05/09 01:52:05;;;;;;;6.10;3.72;;;;;;;8.02;98.35;101800.97;700305;28;1353;-42
2022/05/09 01:52:26;;;;;;;6.82;3.88;;;;;;;8.04;98.59;101804.47;699725;28;4491;-43
2022/05/09 01:52:47;;;;;;;6.15;4.15;;;;;;;8.01;99.46;101805.28;700160;28;1328;-42
2022/05/09 01:53:07;;;;;;;5.68;4.25;;;;;;;8.05;98.84;101803.66;700650;28;1267;-43
2022/05/09 01:53:27;;;;;;;6.47;4.20;;;;;;;8.07;97.89;101804.59;701038;28;1045;-44